Time;durP1;ratioP1;P1;durP2;ratioP2;P2;SDS_P1;SDS_P2;PMS_P1;PMS_P2;Temp;Humidity;BMP_temperature;BMP_pressure;BME280_temperature;BME280_humidity;BME280_pressure;Samples;Min_cycle;Max_cycle;Signal;HPM_P1;HPM_P2
2023/01/25 00:02:00;;;;;;;3.90;1.15;;;9.50;96.10;;;;;;7401057;19;19918;-76
2023/01/25 00:04:26;;;;;;;4.93;1.00;;;9.40;96.10;;;;;;7404410;19;19911;-75
2023/01/25 00:06:52;;;;;;;4.22;1.30;;;9.40;96.30;;;;;;7406381;19;20341;-76
2023/01/25 00:09:19;;;;;;;3.42;1.13;;;9.40;96.20;;;;;;7401220;19;19917;-77
2023/01/25 00:11:45;;;;;;;3.10;1.10;;;9.30;96.30;;;;;;7405026;19;19918;-77
2023/01/25 00:14:12;;;;;;;3.63;1.25;;;9.30;96.20;;;;;;7401650;19;19915;-75
2023/01/25 00:16:38;;;;;;;3.00;1.00;;;9.30;96.10;;;;;;7406180;19;19910;-75
2023/01/25 00:19:05;;;;;;;3.10;1.00;;;9.30;96.10;;;;;;7380514;19;19919;-76
2023/01/25 00:21:33;;;;;;;4.80;1.27;;;9.30;96.20;;;;;;7402084;19;19911;-75
2023/01/25 00:23:58;;;;;;;3.85;0.88;;;9.30;96.10;;;;;;7402577;19;20267;-74
2023/01/25 00:26:24;;;;;;;4.60;1.45;;;9.20;96.30;;;;;;7401883;19;19919;-76
2023/01/25 00:28:54;;;;;;;7.13;1.52;;;9.20;96.40;;;;;;7400153;19;19919;-75
2023/01/25 00:31:38;;;;;;;3.83;1.40;;;9.20;96.30;;;;;;7401318;19;19942;-75
2023/01/25 00:34:28;;;;;;;4.07;1.02;;;9.20;96.10;;;;;;7370112;19;19917;-74
2023/01/25 00:37:04;;;;;;;4.63;1.33;;;9.20;96.30;;;;;;7402611;19;19919;-75
2023/01/25 00:39:29;;;;;;;4.55;1.13;;;9.20;96.40;;;;;;7379466;19;19914;-76
2023/01/25 00:41:55;;;;;;;3.80;1.15;;;9.20;96.20;;;;;;7403394;19;20303;-76
2023/01/25 00:44:22;;;;;;;3.50;1.33;;;9.20;96.10;;;;;;7400031;19;19931;-75
2023/01/25 00:46:48;;;;;;;4.05;1.42;;;9.20;96.30;;;;;;7403506;19;20619;-75
2023/01/25 00:49:20;;;;;;;3.33;1.40;;;9.20;96.10;;;;;;7383351;19;19910;-75
2023/01/25 00:51:47;;;;;;;3.35;1.30;;;9.20;96.00;;;;;;7408574;19;20027;-74
2023/01/25 00:54:12;;;;;;;4.07;1.38;;;9.20;95.70;;;;;;7372825;19;19911;-74
2023/01/25 00:56:38;;;;;;;4.43;1.15;;;9.30;95.50;;;;;;7409221;19;20334;-74
2023/01/25 00:59:04;;;;;;;4.22;1.30;;;9.40;95.20;;;;;;7408875;19;19910;-75
2023/01/25 01:01:29;;;;;;;3.22;1.15;;;9.50;94.80;;;;;;7409529;19;20354;-75
2023/01/25 01:03:55;;;;;;;3.45;1.17;;;9.50;94.60;;;;;;7408847;19;19911;-75
2023/01/25 01:06:21;;;;;;;4.00;1.17;;;9.50;94.60;;;;;;7407453;19;19942;-75
2023/01/25 01:08:47;;;;;;;3.55;1.20;;;9.40;94.70;;;;;;7408446;19;19911;-75
2023/01/25 01:11:12;;;;;;;3.15;0.82;;;9.40;94.90;;;;;;7408359;19;19922;-75
2023/01/25 01:13:39;;;;;;;3.05;0.93;;;9.40;94.70;;;;;;7410765;19;19918;-74
2023/01/25 01:16:07;;;;;;;5.53;1.63;;;9.40;94.80;;;;;;7403053;19;19926;-74
2023/01/25 01:18:34;;;;;;;3.53;1.42;;;9.40;94.70;;;;;;7408397;19;19939;-75
2023/01/25 01:21:00;;;;;;;3.33;1.10;;;9.40;94.70;;;;;;7410004;19;19922;-75
2023/01/25 01:23:28;;;;;;;4.30;1.50;;;9.40;94.80;;;;;;7405909;19;19926;-75
2023/01/25 01:25:55;;;;;;;5.03;1.48;;;9.40;95.10;;;;;;7402888;19;19934;-74
2023/01/25 01:28:20;;;;;;;3.95;1.73;;;9.40;95.50;;;;;;7407180;19;19917;-76
2023/01/25 01:30:46;;;;;;;6.43;2.20;;;9.30;96.10;;;;;;7408985;19;19926;-75
2023/01/25 01:33:12;;;;;;;5.22;2.17;;;9.10;96.80;;;;;;7406142;19;19911;-75
2023/01/25 01:35:37;;;;;;;4.53;2.03;;;9.00;97.20;;;;;;7408106;19;19919;-74
2023/01/25 01:38:03;;;;;;;5.80;2.03;;;8.80;97.70;;;;;;7409756;19;19923;-75
2023/01/25 01:40:29;;;;;;;5.45;1.73;;;8.60;98.00;;;;;;7357804;19;19915;-75
2023/01/25 01:43:05;;;;;;;5.82;2.10;;;8.60;98.40;;;;;;7408584;19;19925;-75
2023/01/25 01:45:51;;;;;;;5.25;2.10;;;8.60;98.60;;;;;;7409684;19;19915;-74
2023/01/25 01:48:41;;;;;;;6.10;1.92;;;8.50;98.20;;;;;;7404839;19;19922;-72
2023/01/25 01:51:09;;;;;;;5.28;1.90;;;8.70;98.10;;;;;;7405300;19;19915;-72
2023/01/25 01:53:35;;;;;;;5.28;1.88;;;8.80;97.90;;;;;;7408564;19;19922;-72
2023/01/25 01:56:06;;;;;;;5.10;1.83;;;8.80;97.70;;;;;;7405725;19;19938;-72
2023/01/25 01:58:33;;;;;;;5.05;1.95;;;8.90;97.80;;;;;;7401975;19;19915;-72
2023/01/25 02:00:59;;;;;;;4.82;2.10;;;8.90;97.90;;;;;;7403732;19;19923;-73
2023/01/25 02:03:27;;;;;;;7.88;2.00;;;8.90;97.70;;;;;;7404156;19;20303;-72
2023/01/25 02:06:11;;;;;;;9.52;2.20;;;9.00;97.50;;;;;;7406010;19;19917;-72
2023/01/25 02:08:39;;;;;;;6.80;2.42;;;9.00;97.40;;;;;;7405091;19;20334;-72
2023/01/25 02:11:07;;;;;;;5.35;2.47;;;9.00;97.30;;;;;;7404686;19;19922;-73
2023/01/25 02:13:34;;;;;;;5.88;2.40;;;9.00;97.10;;;;;;7406279;19;20288;-72
2023/01/25 02:16:00;;;;;;;5.70;2.25;;;9.10;97.00;;;;;;7403817;19;19918;-73
2023/01/25 02:18:25;;;;;;;5.15;2.00;;;9.10;97.00;;;;;;7402216;19;19932;-72
2023/01/25 02:20:54;;;;;;;5.90;2.13;;;9.10;96.70;;;;;;7404814;19;19933;-72
2023/01/25 02:23:36;;;;;;;6.10;1.98;;;9.10;96.70;;;;;;7403022;19;19926;-73
2023/01/25 02:26:04;;;;;;;7.53;2.05;;;9.10;96.80;;;;;;7405331;19;19922;-71
2023/01/25 02:28:42;;;;;;;4.68;2.17;;;9.10;97.00;;;;;;7403527;19;20323;-72
2023/01/25 02:31:08;;;;;;;6.30;2.38;;;9.00;97.40;;;;;;7403574;19;19942;-74
2023/01/25 02:33:34;;;;;;;4.88;2.15;;;8.80;98.80;;;;;;7402488;19;19918;-72
2023/01/25 02:36:17;;;;;;;6.20;2.25;;;8.50;99.90;;;;;;7406627;19;19919;-73
2023/01/25 02:38:56;;;;;;;6.40;1.75;;;8.30;99.90;;;;;;7404041;19;19910;-73
2023/01/25 02:41:29;;;;;;;5.32;1.55;;;8.20;99.90;;;;;;7401714;19;19926;-74
2023/01/25 02:43:55;;;;;;;3.75;1.63;;;8.10;99.90;;;;;;7405887;19;19918;-72
2023/01/25 02:46:27;;;;;;;3.92;1.25;;;8.00;99.90;;;;;;7400478;19;19917;-73
2023/01/25 02:48:56;;;;;;;3.30;1.50;;;7.90;99.90;;;;;;7404886;19;20370;-72
2023/01/25 02:51:24;;;;;;;6.55;1.95;;;7.90;99.90;;;;;;7401394;19;19931;-72
2023/01/25 02:53:50;;;;;;;4.68;1.45;;;7.90;99.90;;;;;;7405529;19;20322;-72
2023/01/25 02:56:17;;;;;;;3.75;1.50;;;7.90;99.90;;;;;;7403610;19;20337;-72
2023/01/25 02:58:43;;;;;;;3.67;1.58;;;7.90;99.90;;;;;;7408437;19;20014;-73
2023/01/25 03:01:10;;;;;;;3.97;1.73;;;7.80;99.90;;;;;;7405246;19;20017;-73
2023/01/25 03:03:35;;;;;;;4.90;1.75;;;7.90;99.90;;;;;;7409378;19;19911;-73
2023/01/25 03:06:01;;;;;;;4.18;1.77;;;7.90;99.90;;;;;;7404771;19;19941;-73
2023/01/25 03:08:27;;;;;;;3.85;1.55;;;8.00;99.90;;;;;;7405373;19;19918;-73
2023/01/25 03:11:00;;;;;;;5.30;1.73;;;7.90;99.90;;;;;;7406722;19;19922;-72
2023/01/25 03:13:26;;;;;;;4.85;2.03;;;8.00;99.90;;;;;;7405675;19;19989;-73
2023/01/25 03:16:04;;;;;;;5.60;2.30;;;8.00;99.90;;;;;;7406630;19;19927;-72
2023/01/25 03:18:31;;;;;;;5.20;2.03;;;8.00;99.90;;;;;;7403543;19;19922;-73
2023/01/25 03:21:04;;;;;;;7.65;2.83;;;8.10;99.90;;;;;;7406536;19;19914;-73
2023/01/25 03:23:30;;;;;;;6.65;3.00;;;8.10;99.90;;;;;;7405454;19;20404;-72
2023/01/25 03:26:13;;;;;;;6.15;2.90;;;8.10;99.90;;;;;;7406371;19;19922;-74
2023/01/25 03:28:40;;;;;;;5.63;2.40;;;8.10;99.90;;;;;;7405484;19;20290;-72
2023/01/25 03:31:07;;;;;;;4.88;2.47;;;8.00;99.90;;;;;;7371297;19;19925;-73
2023/01/25 03:33:33;;;;;;;6.00;2.22;;;8.10;99.90;;;;;;7406752;19;19919;-73
2023/01/25 03:36:00;;;;;;;5.18;2.35;;;8.10;99.90;;;;;;7404000;19;20315;-73
2023/01/25 03:38:26;;;;;;;3.90;1.42;;;8.20;99.80;;;;;;7406090;19;19935;-73
2023/01/25 03:40:52;;;;;;;3.83;1.40;;;8.30;99.60;;;;;;7404442;19;19914;-72
2023/01/25 03:43:19;;;;;;;4.45;1.60;;;8.40;98.80;;;;;;7404444;19;19925;-72
2023/01/25 03:45:45;;;;;;;3.75;1.27;;;8.40;98.80;;;;;;7403158;19;19918;-72
2023/01/25 03:48:11;;;;;;;3.40;1.27;;;8.50;98.80;;;;;;7378019;19;19921;-72
2023/01/25 03:50:37;;;;;;;4.13;1.38;;;8.50;98.60;;;;;;7402931;19;20327;-72
2023/01/25 03:55:48;;;;;;;4.32;1.58;;;8.50;98.60;;;;;;7402398;19;19938;-73
2023/01/25 03:58:13;;;;;;;4.78;1.73;;;8.50;98.80;;;;;;7401674;19;20306;-72
2023/01/25 04:00:39;;;;;;;4.65;1.98;;;8.50;98.40;;;;;;7402890;19;19922;-73
2023/01/25 04:03:05;;;;;;;5.05;1.83;;;8.50;98.30;;;;;;7401263;19;19929;-72
2023/01/25 04:05:31;;;;;;;3.65;1.55;;;8.40;98.50;;;;;;7404056;19;19918;-73
2023/01/25 04:07:56;;;;;;;4.25;1.92;;;8.40;98.40;;;;;;7402649;19;20350;-73
2023/01/25 04:10:22;;;;;;;4.35;1.92;;;8.50;98.30;;;;;;7401640;19;20255;-72
2023/01/25 04:12:48;;;;;;;3.88;1.70;;;8.40;98.30;;;;;;7400346;19;19985;-74
2023/01/25 04:15:13;;;;;;;5.30;1.60;;;8.40;98.50;;;;;;7401205;19;19947;-72
2023/01/25 04:17:39;;;;;;;4.85;1.73;;;8.30;98.20;;;;;;7403452;19;19952;-74
2023/01/25 04:20:06;;;;;;;3.92;1.63;;;8.30;98.20;;;;;;7401967;19;19938;-73
2023/01/25 04:22:31;;;;;;;4.40;1.50;;;8.30;98.10;;;;;;7402939;19;20570;-73
2023/01/25 04:24:57;;;;;;;4.63;1.75;;;8.30;98.00;;;;;;7403301;19;19915;-74
2023/01/25 04:27:23;;;;;;;4.57;1.55;;;8.40;98.10;;;;;;7406866;19;19923;-73
2023/01/25 04:29:49;;;;;;;4.70;1.42;;;8.50;97.60;;;;;;7408462;19;19935;-73
2023/01/25 04:32:14;;;;;;;5.88;1.25;;;8.50;97.40;;;;;;7408564;19;19930;-74
2023/01/25 04:34:40;;;;;;;3.72;1.38;;;8.60;97.60;;;;;;7404632;19;19915;-73
2023/01/25 04:37:06;;;;;;;3.63;1.20;;;8.60;97.10;;;;;;7406234;19;20263;-73
2023/01/25 04:39:32;;;;;;;5.03;1.42;;;8.70;97.20;;;;;;7410394;19;20003;-74
2023/01/25 04:41:57;;;;;;;3.72;1.15;;;8.70;96.90;;;;;;7405568;19;19981;-74
2023/01/25 04:44:23;;;;;;;3.30;1.10;;;8.80;96.90;;;;;;7407266;19;19926;-73
2023/01/25 04:46:49;;;;;;;3.63;1.20;;;8.80;96.40;;;;;;7408972;19;19937;-73
2023/01/25 04:49:15;;;;;;;3.30;1.00;;;8.90;96.00;;;;;;7405194;19;20389;-74
2023/01/25 04:51:41;;;;;;;3.95;1.33;;;9.00;95.90;;;;;;7407624;19;19919;-73
2023/01/25 04:54:06;;;;;;;3.42;1.15;;;9.00;95.50;;;;;;7407432;19;19918;-74
2023/01/25 04:56:32;;;;;;;3.67;1.45;;;9.10;95.40;;;;;;7409092;19;20601;-73
2023/01/25 04:58:58;;;;;;;4.45;1.17;;;9.10;95.00;;;;;;7376769;19;19919;-73
2023/01/25 05:01:24;;;;;;;4.07;1.30;;;9.20;94.70;;;;;;7405558;19;19918;-72
2023/01/25 05:03:49;;;;;;;4.72;1.13;;;9.20;94.70;;;;;;7408973;19;20338;-73
2023/01/25 05:06:16;;;;;;;4.90;1.45;;;9.20;95.00;;;;;;7404972;19;20278;-73
2023/01/25 05:08:42;;;;;;;3.80;1.50;;;9.20;94.90;;;;;;7407502;19;19963;-73
2023/01/25 05:11:08;;;;;;;5.25;1.40;;;9.20;95.00;;;;;;7406303;19;19926;-73
2023/01/25 05:13:34;;;;;;;3.20;1.38;;;9.10;94.90;;;;;;7405281;19;19921;-73
2023/01/25 05:15:59;;;;;;;4.68;1.83;;;9.10;95.10;;;;;;7353827;19;20039;-73
2023/01/25 05:18:25;;;;;;;3.92;1.52;;;9.10;95.20;;;;;;7406079;19;19923;-72
2023/01/25 05:20:55;;;;;;;3.85;1.42;;;9.00;95.20;;;;;;7406470;19;19978;-73
2023/01/25 05:23:21;;;;;;;3.47;1.60;;;9.00;95.20;;;;;;7406098;19;20313;-72
2023/01/25 05:28:32;;;;;;;5.15;1.67;;;9.00;95.30;;;;;;7406726;19;19922;-72
2023/01/25 05:30:58;;;;;;;6.78;1.75;;;8.90;95.30;;;;;;7404193;19;19915;-71
2023/01/25 05:33:25;;;;;;;6.15;2.45;;;8.90;95.20;;;;;;7404847;19;19918;-72
2023/01/25 05:35:50;;;;;;;4.85;1.88;;;8.90;95.20;;;;;;7405972;19;19914;-72
2023/01/25 05:38:16;;;;;;;5.00;1.90;;;8.90;95.30;;;;;;7404449;19;19911;-72
2023/01/25 05:40:42;;;;;;;6.75;2.00;;;8.90;95.40;;;;;;7406069;19;20348;-71
2023/01/25 05:43:08;;;;;;;5.68;2.03;;;8.90;95.20;;;;;;7402169;19;19915;-72
2023/01/25 05:45:34;;;;;;;5.13;2.22;;;8.90;95.20;;;;;;7407915;19;19923;-73
2023/01/25 05:48:01;;;;;;;5.72;2.33;;;8.80;95.30;;;;;;7406317;19;20342;-73
2023/01/25 05:50:26;;;;;;;6.95;2.30;;;8.80;95.40;;;;;;7407385;19;19948;-72
2023/01/25 05:52:52;;;;;;;6.05;2.05;;;8.80;95.30;;;;;;7408309;19;19915;-73
2023/01/25 05:55:18;;;;;;;6.30;2.22;;;8.80;95.20;;;;;;7372651;19;20601;-72
2023/01/25 05:57:44;;;;;;;5.00;1.95;;;8.80;94.90;;;;;;7406443;19;20355;-73
2023/01/25 06:00:11;;;;;;;4.68;2.00;;;8.80;94.90;;;;;;7403924;19;19926;-72
2023/01/25 06:02:36;;;;;;;4.85;2.25;;;8.80;95.00;;;;;;7407030;19;19914;-73
2023/01/25 06:05:06;;;;;;;5.18;2.08;;;8.80;95.10;;;;;;7402859;19;19926;-72
2023/01/25 06:07:35;;;;;;;5.13;1.90;;;8.80;95.20;;;;;;7406752;19;20014;-73
2023/01/25 06:10:02;;;;;;;4.30;1.75;;;8.80;95.40;;;;;;7406523;19;19929;-72
2023/01/25 06:12:28;;;;;;;;;;;8.70;95.40;;;;;;7407700;19;19915;-72
2023/01/25 06:14:54;;;;;;;5.65;1.95;;;8.70;95.50;;;;;;7407849;19;20602;-73
2023/01/25 06:17:21;;;;;;;5.70;1.70;;;8.70;95.80;;;;;;7406076;19;19926;-73
2023/01/25 06:19:46;;;;;;;4.32;1.80;;;8.70;95.70;;;;;;7405122;19;20432;-73
2023/01/25 06:22:12;;;;;;;5.03;1.88;;;8.70;95.90;;;;;;7401219;19;19919;-73
2023/01/25 06:24:38;;;;;;;4.60;1.90;;;8.70;96.00;;;;;;7408387;19;19978;-73
2023/01/25 06:27:04;;;;;;;4.93;1.83;;;8.70;96.00;;;;;;7404040;19;19915;-73
2023/01/25 06:29:29;;;;;;;4.35;1.92;;;8.70;96.10;;;;;;7403081;19;19907;-72
2023/01/25 06:31:55;;;;;;;5.35;2.00;;;8.70;96.10;;;;;;7405573;19;19947;-72
2023/01/25 06:34:23;;;;;;;4.40;1.67;;;8.70;96.00;;;;;;7402931;19;19925;-73
2023/01/25 06:36:49;;;;;;;5.93;2.33;;;8.70;95.90;;;;;;7405566;19;19944;-72
2023/01/25 06:39:15;;;;;;;5.68;1.77;;;8.80;95.80;;;;;;7403285;19;20362;-74
2023/01/25 06:41:41;;;;;;;5.20;1.70;;;8.80;95.60;;;;;;7406858;19;20346;-73
2023/01/25 06:44:08;;;;;;;5.00;1.98;;;8.80;95.60;;;;;;7401555;19;19919;-73
2023/01/25 06:46:33;;;;;;;5.10;1.98;;;8.80;95.10;;;;;;7402266;19;19910;-72
2023/01/25 06:48:59;;;;;;;6.03;2.33;;;8.80;95.00;;;;;;7403852;19;19922;-73
2023/01/25 06:51:25;;;;;;;6.57;2.20;;;8.70;95.00;;;;;;7404362;19;19915;-73
2023/01/25 06:53:51;;;;;;;5.72;2.50;;;8.70;94.60;;;;;;7407887;19;20094;-72
2023/01/25 06:56:20;;;;;;;4.78;1.92;;;8.70;94.40;;;;;;7404042;19;19914;-73
2023/01/25 06:58:47;;;;;;;4.50;2.33;;;8.70;94.10;;;;;;7405202;19;19974;-73
2023/01/25 07:01:18;;;;;;;4.60;1.52;;;8.80;93.60;;;;;;7402532;19;19913;-72
2023/01/25 07:03:52;;;;;;;4.60;1.63;;;8.80;93.60;;;;;;7403075;19;19923;-73
2023/01/25 07:06:18;;;;;;;4.03;1.63;;;9.00;92.80;;;;;;7405182;19;19922;-73
2023/01/25 07:08:45;;;;;;;4.88;1.50;;;9.00;92.60;;;;;;7405850;19;20411;-72
2023/01/25 07:11:12;;;;;;;5.20;1.70;;;9.10;92.30;;;;;;7401407;19;19914;-72
2023/01/25 07:13:40;;;;;;;4.47;1.70;;;9.00;92.30;;;;;;7404081;19;19918;-72
2023/01/25 07:16:07;;;;;;;4.60;1.88;;;9.00;92.00;;;;;;7381189;19;20388;-73
2023/01/25 07:18:36;;;;;;;4.70;1.95;;;8.90;91.90;;;;;;7403608;19;19918;-73
2023/01/25 07:21:22;;;;;;;5.22;1.92;;;8.80;91.50;;;;;;7405745;19;19929;-72
2023/01/25 07:23:51;;;;;;;5.13;1.80;;;8.80;91.60;;;;;;7404299;19;20345;-72
2023/01/25 07:26:24;;;;;;;5.45;2.00;;;8.80;91.40;;;;;;7405003;19;19925;-73
2023/01/25 07:28:51;;;;;;;5.13;1.63;;;8.80;91.30;;;;;;7373331;19;19919;-72
2023/01/25 07:31:19;;;;;;;5.05;2.35;;;8.80;90.90;;;;;;7400992;19;19919;-72
2023/01/25 07:33:53;;;;;;;5.35;2.53;;;8.80;90.80;;;;;;7404383;19;20331;-73
2023/01/25 07:36:19;;;;;;;4.75;1.88;;;8.70;90.90;;;;;;7403573;19;19938;-74
2023/01/25 07:38:45;;;;;;;6.93;2.25;;;8.70;90.70;;;;;;7407747;19;19914;-73
2023/01/25 07:41:11;;;;;;;3.83;1.60;;;8.70;90.60;;;;;;7400235;19;19922;-73
2023/01/25 07:43:38;;;;;;;3.97;1.58;;;8.90;90.30;;;;;;7404376;19;19911;-73
2023/01/25 07:46:11;;;;;;;5.63;1.80;;;9.00;90.30;;;;;;7402012;19;19918;-71
2023/01/25 07:48:38;;;;;;;4.15;1.90;;;9.10;90.00;;;;;;7399376;19;19966;-72
2023/01/25 07:51:10;;;;;;;24.58;13.25;;;9.10;90.00;;;;;;7401150;19;19915;-72
2023/01/25 07:53:40;;;;;;;6.20;2.58;;;9.20;90.00;;;;;;7404483;19;19978;-75
2023/01/25 07:56:06;;;;;;;4.78;2.22;;;9.10;89.90;;;;;;7399113;19;19918;-73
2023/01/25 07:58:33;;;;;;;6.68;2.35;;;9.00;90.10;;;;;;7403213;19;19921;-73
2023/01/25 08:01:09;;;;;;;7.07;2.70;;;9.00;90.00;;;;;;7405015;19;19917;-75
2023/01/25 08:03:35;;;;;;;5.75;2.08;;;8.90;89.90;;;;;;7401915;19;19952;-74
2023/01/25 08:06:04;;;;;;;5.82;2.47;;;8.90;90.00;;;;;;7404004;19;19922;-73
2023/01/25 08:08:33;;;;;;;5.55;2.45;;;8.90;90.00;;;;;;7402733;19;20336;-74
2023/01/25 08:11:21;;;;;;;5.68;2.03;;;8.90;89.40;;;;;;7401843;19;19926;-73
2023/01/25 08:13:48;;;;;;;5.22;1.95;;;9.00;89.60;;;;;;7401260;19;19938;-73
2023/01/25 08:16:19;;;;;;;4.82;2.10;;;9.00;89.20;;;;;;7401510;19;19914;-73
2023/01/25 08:19:03;;;;;;;5.60;2.35;;;9.10;89.30;;;;;;7403788;19;19954;-74
2023/01/25 08:21:33;;;;;;;5.45;1.85;;;9.20;88.70;;;;;;7403477;19;19923;-73
2023/01/25 08:24:00;;;;;;;4.35;1.50;;;9.30;88.10;;;;;;7404094;19;19918;-73
2023/01/25 08:26:27;;;;;;;6.30;2.03;;;9.40;88.10;;;;;;7372034;19;19949;-73
2023/01/25 08:28:54;;;;;;;6.35;2.55;;;9.50;87.70;;;;;;7399328;19;19918;-73
2023/01/25 08:31:31;;;;;;;6.85;2.70;;;9.60;87.70;;;;;;7395774;19;19922;-73
2023/01/25 08:33:58;;;;;;;5.90;2.45;;;10.10;87.20;;;;;;7400545;19;20015;-73
2023/01/25 08:36:24;;;;;;;5.13;2.22;;;10.40;86.40;;;;;;7372923;19;19931;-74
2023/01/25 08:38:54;;;;;;;6.53;2.58;;;10.40;85.80;;;;;;7401947;19;19920;-73
2023/01/25 08:41:20;;;;;;;5.97;2.22;;;10.20;86.00;;;;;;7401159;19;19919;-74
2023/01/25 08:43:46;;;;;;;5.22;2.15;;;10.30;85.50;;;;;;7404784;19;19934;-73
2023/01/25 08:46:14;;;;;;;5.93;2.72;;;10.50;85.30;;;;;;7399694;19;19941;-73
2023/01/25 08:48:40;;;;;;;4.95;1.90;;;10.40;85.20;;;;;;7398598;19;19918;-73
2023/01/25 08:51:12;;;;;;;5.60;2.30;;;10.20;85.50;;;;;;7395920;19;20247;-73
2023/01/25 08:53:38;;;;;;;7.18;2.97;;;10.00;85.10;;;;;;7400076;19;20365;-73
2023/01/25 08:56:08;;;;;;;6.13;2.75;;;10.40;84.90;;;;;;7398081;19;19911;-72
2023/01/25 08:58:37;;;;;;;5.60;2.10;;;11.00;84.70;;;;;;7400055;19;20482;-73
2023/01/25 09:01:05;;;;;;;4.82;2.25;;;12.00;83.10;;;;;;7400817;19;19978;-73
2023/01/25 09:03:33;;;;;;;5.88;2.78;;;13.20;81.50;;;;;;7400267;19;20325;-72
2023/01/25 09:05:59;;;;;;;6.32;3.13;;;14.00;78.80;;;;;;7402435;19;19921;-72
2023/01/25 09:08:25;;;;;;;4.65;2.08;;;14.40;78.00;;;;;;7397261;19;20327;-73
2023/01/25 09:10:50;;;;;;;5.63;2.15;;;15.60;77.10;;;;;;7402494;19;20271;-73
2023/01/25 09:13:16;;;;;;;6.35;2.28;;;15.40;75.50;;;;;;7404644;19;19918;-73
2023/01/25 09:15:42;;;;;;;5.03;2.38;;;14.40;76.70;;;;;;7406278;19;19942;-73
2023/01/25 09:18:08;;;;;;;6.20;2.65;;;13.40;77.40;;;;;;7400106;19;19918;-73
2023/01/25 09:20:33;;;;;;;4.70;2.22;;;12.70;77.80;;;;;;7396884;19;21354;-75
2023/01/25 09:23:00;;;;;;;5.35;1.77;;;12.50;78.10;;;;;;7399827;19;19923;-73
2023/01/25 09:25:26;;;;;;;5.15;2.05;;;12.30;77.80;;;;;;7380471;19;19919;-72
2023/01/25 09:27:52;;;;;;;5.32;2.08;;;12.30;78.00;;;;;;7389849;19;19930;-73
2023/01/25 09:30:18;;;;;;;6.40;2.40;;;12.20;78.20;;;;;;7371300;19;19919;-73
2023/01/25 09:32:44;;;;;;;4.93;2.45;;;12.00;78.60;;;;;;7400230;19;19934;-72
2023/01/25 09:35:09;;;;;;;6.97;2.50;;;11.90;78.70;;;;;;7405092;19;19919;-72
2023/01/25 09:37:35;;;;;;;7.15;2.85;;;12.00;78.90;;;;;;7381294;19;19944;-73
2023/01/25 09:40:02;;;;;;;7.22;3.88;;;12.00;79.60;;;;;;7403039;19;19938;-72
2023/01/25 09:42:35;;;;;;;7.63;3.35;;;12.10;79.90;;;;;;7399728;19;19935;-73
2023/01/25 09:45:39;;;;;;;6.78;3.20;;;12.20;80.30;;;;;;7402506;19;20270;-73
2023/01/25 09:48:27;;;;;;;5.82;3.20;;;12.60;78.70;;;;;;7400489;19;19910;-72
2023/01/25 09:51:04;;;;;;;8.63;3.60;;;12.90;77.80;;;;;;7384147;19;19919;-72
2023/01/25 09:53:32;;;;;;;6.82;3.53;;;13.30;77.50;;;;;;7399468;19;19911;-74
2023/01/25 09:56:07;;;;;;;6.75;3.00;;;13.80;77.00;;;;;;7393809;19;19931;-72
2023/01/25 09:58:43;;;;;;;6.93;3.47;;;13.80;75.70;;;;;;7397070;19;19915;-74
2023/01/25 10:01:18;;;;;;;5.65;2.55;;;14.10;76.90;;;;;;7363534;19;19919;-75
2023/01/25 10:03:56;;;;;;;6.88;3.00;;;13.90;74.80;;;;;;7371712;19;19930;-74
2023/01/25 10:06:28;;;;;;;16.67;8.02;;;13.70;73.90;;;;;;7403968;19;19945;-73
2023/01/25 10:09:22;;;;;;;4.60;2.17;;;14.40;74.20;;;;;;7404432;19;19934;-73
2023/01/25 10:11:47;;;;;;;3.55;1.83;;;14.50;73.50;;;;;;7397997;19;19927;-74
2023/01/25 10:14:16;;;;;;;4.22;1.98;;;14.80;72.60;;;;;;7402194;19;19942;-73
2023/01/25 10:16:50;;;;;;;4.88;2.30;;;14.50;72.70;;;;;;7403772;19;19922;-74
2023/01/25 10:19:52;;;;;;;4.03;1.92;;;14.70;72.40;;;;;;7394284;19;19918;-73
2023/01/25 10:22:25;;;;;;;4.57;2.03;;;14.50;71.90;;;;;;7389349;19;19915;-75
2023/01/25 10:24:59;;;;;;;4.53;1.98;;;14.80;72.10;;;;;;7400421;19;19963;-72
2023/01/25 10:27:29;;;;;;;4.88;2.50;;;15.10;71.90;;;;;;7394347;19;19998;-73
2023/01/25 10:29:57;;;;;;;5.00;2.58;;;15.20;72.30;;;;;;7403073;19;19928;-73
2023/01/25 10:32:31;;;;;;;4.88;2.35;;;15.20;71.70;;;;;;7394601;19;19919;-74
2023/01/25 10:35:11;;;;;;;5.57;2.30;;;15.40;70.70;;;;;;7394088;19;19918;-73
2023/01/25 10:37:37;;;;;;;4.25;2.17;;;15.50;70.50;;;;;;7399367;19;19923;-73
2023/01/25 10:40:22;;;;;;;4.53;2.15;;;15.80;70.30;;;;;;7397575;19;19933;-73
2023/01/25 10:43:01;;;;;;;4.90;2.13;;;16.20;69.80;;;;;;7403569;19;19943;-74
2023/01/25 10:45:27;;;;;;;6.07;2.58;;;16.30;69.10;;;;;;7376516;19;19918;-73
2023/01/25 10:48:18;;;;;;;4.70;2.63;;;16.00;69.90;;;;;;7374601;19;19933;-74
2023/01/25 10:50:47;;;;;;;6.50;2.80;;;15.50;69.30;;;;;;7387090;19;19926;-73
2023/01/25 10:53:34;;;;;;;6.28;3.17;;;15.20;70.30;;;;;;7393999;19;19930;-73
2023/01/25 10:56:10;;;;;;;4.97;3.00;;;14.70;71.10;;;;;;7397991;19;19917;-73
2023/01/25 10:58:41;;;;;;;5.28;2.67;;;15.30;71.10;;;;;;7395839;19;22051;-74
2023/01/25 11:01:11;;;;;;;6.32;3.28;;;15.50;69.80;;;;;;7358987;19;19958;-73
2023/01/25 11:03:45;;;;;;;6.45;3.53;;;16.00;70.70;;;;;;7402374;19;19930;-72
2023/01/25 11:06:11;;;;;;;5.72;3.20;;;16.20;69.90;;;;;;7397899;19;19914;-73
2023/01/25 11:08:39;;;;;;;5.43;2.78;;;16.30;69.30;;;;;;7386559;19;20031;-74
2023/01/25 11:11:31;;;;;;;5.22;2.88;;;16.80;69.00;;;;;;7389734;19;19915;-73
2023/01/25 11:13:57;;;;;;;5.00;3.03;;;16.50;68.50;;;;;;7399750;19;19911;-73
2023/01/25 11:16:34;;;;;;;4.55;2.50;;;16.60;68.50;;;;;;7389442;19;20374;-73
2023/01/25 11:19:01;;;;;;;5.68;3.85;;;17.10;68.30;;;;;;7376785;19;19911;-73
2023/01/25 11:21:33;;;;;;;8.43;4.78;;;17.20;67.70;;;;;;7395110;19;20335;-75
2023/01/25 11:24:07;;;;;;;8.80;4.85;;;17.40;68.70;;;;;;7397993;19;19970;-74
2023/01/25 11:26:36;;;;;;;6.60;4.07;;;17.50;69.00;;;;;;7398690;19;19915;-74
2023/01/25 11:29:26;;;;;;;5.55;3.65;;;17.00;68.50;;;;;;7380867;19;19926;-73
2023/01/25 11:31:53;;;;;;;;;;;17.10;67.70;;;;;;7404434;19;20393;-73
2023/01/25 11:34:24;;;;;;;5.78;3.42;;;17.70;68.00;;;;;;7403828;19;19918;-74
2023/01/25 11:36:58;;;;;;;5.90;3.35;;;17.60;66.40;;;;;;7396018;19;19934;-74
2023/01/25 11:39:33;;;;;;;6.75;4.40;;;18.30;66.80;;;;;;7397477;19;19939;-75
2023/01/25 11:42:17;;;;;;;10.93;7.05;;;18.50;66.90;;;;;;7399607;19;19930;-73
2023/01/25 11:45:04;;;;;;;6.10;3.65;;;18.90;66.40;;;;;;7401288;19;20343;-74
2023/01/25 11:47:53;;;;;;;6.10;3.90;;;18.40;65.90;;;;;;7397429;19;19978;-73
2023/01/25 11:50:46;;;;;;;5.82;3.75;;;18.50;66.20;;;;;;7395324;19;19952;-73
2023/01/25 11:53:36;;;;;;;6.97;3.45;;;19.30;65.80;;;;;;7389451;19;19910;-74
2023/01/25 11:56:25;;;;;;;4.60;2.78;;;19.70;65.00;;;;;;7398306;19;19926;-74
2023/01/25 11:58:56;;;;;;;6.35;3.05;;;19.80;63.80;;;;;;7391328;19;19915;-73
2023/01/25 12:01:50;;;;;;;5.32;3.15;;;20.60;63.30;;;;;;7392395;19;20069;-74
2023/01/25 12:04:39;;;;;;;5.60;3.60;;;21.00;63.40;;;;;;7397921;19;19918;-72
2023/01/25 12:07:23;;;;;;;7.10;3.60;;;20.80;62.70;;;;;;7395075;19;19914;-74
2023/01/25 12:10:07;;;;;;;6.60;3.67;;;20.10;63.30;;;;;;7398603;19;19915;-74
2023/01/25 12:12:40;;;;;;;7.95;4.47;;;20.60;63.10;;;;;;7403057;19;19929;-73
2023/01/25 12:15:09;;;;;;;7.35;4.05;;;21.50;63.20;;;;;;7396714;19;19919;-74
2023/01/25 12:17:54;;;;;;;6.75;4.35;;;21.90;63.30;;;;;;7396419;19;19918;-74
2023/01/25 12:20:57;;;;;;;6.47;4.75;;;21.50;62.10;;;;;;7370931;19;19914;-74
2023/01/25 12:23:31;;;;;;;6.90;4.22;;;20.20;63.10;;;;;;7391908;19;19933;-74
2023/01/25 12:26:03;;;;;;;7.03;4.57;;;21.10;63.40;;;;;;7395996;19;20050;-73
2023/01/25 12:28:54;;;;;;;7.85;4.82;;;20.80;62.90;;;;;;7394033;19;19922;-75
2023/01/25 12:31:32;;;;;;;8.77;5.80;;;20.30;63.90;;;;;;7394442;19;20250;-73
2023/01/25 12:34:01;;;;;;;9.05;6.20;;;19.50;64.20;;;;;;7314258;19;19917;-73
2023/01/25 12:36:46;;;;;;;9.20;6.22;;;19.00;65.50;;;;;;7402459;19;20025;-74
2023/01/25 12:39:23;;;;;;;8.40;5.50;;;18.80;65.80;;;;;;7392896;19;19938;-74
2023/01/25 12:41:56;;;;;;;9.10;6.38;;;19.30;65.40;;;;;;7403616;19;20386;-73
2023/01/25 12:44:29;;;;;;;8.43;6.25;;;18.70;66.20;;;;;;7364179;19;19915;-74
2023/01/25 12:47:16;;;;;;;9.38;6.10;;;19.00;65.70;;;;;;7405741;19;20343;-73
2023/01/25 12:50:01;;;;;;;8.95;7.00;;;18.90;65.90;;;;;;7397613;19;20326;-73
2023/01/25 12:52:35;;;;;;;9.90;7.18;;;19.30;65.90;;;;;;7408733;19;19936;-73
2023/01/25 12:55:04;;;;;;;9.15;6.72;;;18.90;66.40;;;;;;7400942;19;19915;-72
2023/01/25 12:57:45;;;;;;;8.90;6.47;;;17.90;66.50;;;;;;7403789;19;19982;-74
2023/01/25 13:00:35;;;;;;;8.48;5.72;;;19.40;66.40;;;;;;7402597;19;19939;-74
2023/01/25 13:03:14;;;;;;;8.85;6.25;;;19.50;64.50;;;;;;7398241;19;19918;-74
2023/01/25 13:06:16;;;;;;;8.02;5.60;;;19.90;64.20;;;;;;7395282;19;19914;-74
2023/01/25 13:08:50;;;;;;;7.70;5.40;;;20.30;63.60;;;;;;7398206;19;19914;-73
2023/01/25 13:11:37;;;;;;;8.43;5.25;;;21.00;62.80;;;;;;7396324;19;19915;-74
2023/01/25 13:14:15;;;;;;;9.27;6.55;;;21.30;62.10;;;;;;7406735;19;19931;-73
2023/01/25 13:16:52;;;;;;;10.02;6.97;;;22.10;63.30;;;;;;7408130;19;20338;-73